Time;durP1;ratioP1;P1;durP2;ratioP2;P2;SDS_P1;SDS_P2;PMS_P1;PMS_P2;Temp;Humidity;BMP_temperature;BMP_pressure;BME280_temperature;BME280_humidity;BME280_pressure;Samples;Min_cycle;Max_cycle;Signal;HPM_P1;HPM_P2
2022/05/02 00:01:47;;;;;;;8.02;5.15;;;;;;;14.70;31.87;101514.59;5045372;28;20044;-71
2022/05/02 00:04:14;;;;;;;12.02;5.68;;;;;;;15.12;31.42;101512.72;5051245;28;20543;-71
2022/05/02 00:06:40;;;;;;;10.95;5.18;;;;;;;15.15;30.97;101509.69;5051308;28;20123;-71
2022/05/02 00:09:07;;;;;;;10.65;5.25;;;;;;;15.06;31.32;101502.63;5050654;28;20048;-71
2022/05/02 00:11:33;;;;;;;15.45;5.10;;;;;;;15.00;31.21;101504.13;5050373;28;20128;-71
2022/05/02 00:13:59;;;;;;;10.43;4.53;;;;;;;14.96;31.17;101503.63;5050056;28;20087;-71
2022/05/02 00:16:26;;;;;;;7.03;4.47;;;;;;;15.44;30.07;101501.88;5049449;28;20049;-70
2022/05/02 00:18:52;;;;;;;14.48;5.03;;;;;;;15.19;30.85;101505.66;5049411;28;20489;-71
2022/05/02 00:21:19;;;;;;;11.07;4.15;;;;;;;15.29;30.43;101497.31;5049824;28;20456;-71
2022/05/02 00:23:45;;;;;;;11.90;4.88;;;;;;;15.00;30.62;101504.13;5051011;28;20040;-70
2022/05/02 00:26:12;;;;;;;13.93;3.95;;;;;;;15.09;30.63;101494.19;5047931;28;20045;-70
2022/05/02 00:28:38;;;;;;;12.40;4.53;;;;;;;15.10;30.38;101495.84;5049255;28;20128;-71
2022/05/02 00:31:05;;;;;;;8.95;3.97;;;;;;;15.20;30.47;101494.66;5048216;28;20456;-71
2022/05/02 00:33:31;;;;;;;12.63;4.65;;;;;;;14.82;30.63;101496.22;5050133;28;20045;-71
2022/05/02 00:35:57;;;;;;;10.27;4.05;;;;;;;14.20;31.70;101493.94;5050511;28;20132;-71
2022/05/02 00:38:24;;;;;;;11.10;4.25;;;;;;;14.27;31.92;101492.25;5053977;28;20493;-71
2022/05/02 00:40:51;;;;;;;9.65;3.95;;;;;;;14.48;31.21;101485.53;5051788;28;20135;-71
2022/05/02 00:43:18;;;;;;;10.50;4.07;;;;;;;14.63;31.39;101489.25;5054329;28;20061;-71
2022/05/02 00:45:44;;;;;;;10.38;3.80;;;;;;;14.62;31.13;101484.88;5054125;28;20091;-71
2022/05/02 00:48:11;;;;;;;7.05;3.92;;;;;;;15.04;30.58;101486.56;5054422;28;20132;-71
2022/05/02 00:50:40;;;;;;;6.78;3.55;;;;;;;14.88;30.67;101489.31;5051434;28;20136;-71
2022/05/02 00:53:09;;;;;;;10.23;3.90;;;;;;;15.19;30.32;101486.72;5052312;28;20069;-71
2022/05/02 00:55:37;;;;;;;12.93;3.83;;;;;;;15.06;30.58;101489.94;5046323;28;20378;-71
2022/05/02 00:58:05;;;;;;;10.55;4.00;;;;;;;14.28;31.32;101482.28;5053551;28;20619;-71
2022/05/02 01:00:34;;;;;;;16.15;3.78;;;;;;;14.85;30.71;101484.25;5053481;28;20048;-71
2022/05/02 01:03:01;;;;;;;12.20;4.18;;;;;;;14.52;31.33;101481.47;5053639;28;20072;-71
2022/05/02 01:09:14;;;;;;;9.40;3.40;;;;;;;14.16;31.49;101480.94;5034330;28;20095;-70
2022/05/02 01:11:41;;;;;;;9.75;3.20;;;;;;;14.23;31.23;101481.97;5034450;28;20128;-70
2022/05/02 01:14:08;;;;;;;13.68;3.28;;;;;;;14.20;31.37;101482.28;5033325;28;20046;-71
2022/05/02 01:16:35;;;;;;;7.75;3.40;;;;;;;14.36;31.06;101473.34;5032402;28;20522;-70
2022/05/02 01:19:02;;;;;;;9.60;3.35;;;;;;;14.92;30.46;101480.69;5033008;28;20125;-71
2022/05/02 01:21:30;;;;;;;11.20;3.88;;;;;;;14.87;30.31;101474.09;5033833;28;20076;-71
2022/05/02 01:24:01;;;;;;;8.90;3.38;;;;;;;14.72;30.27;101471.22;5033246;28;20049;-71
2022/05/02 01:26:28;;;;;;;7.38;3.33;;;;;;;14.48;30.46;101472.03;5033471;28;20045;-71
2022/05/02 01:28:59;;;;;;;5.97;2.95;;;;;;;14.64;30.17;101476.63;5033262;28;20442;-71
2022/05/02 01:31:26;;;;;;;7.70;3.23;;;;;;;15.04;29.78;101483.84;5033843;28;20559;-71
2022/05/02 01:33:52;;;;;;;6.75;3.25;;;;;;;15.38;29.25;101471.97;5033176;28;20652;-71
2022/05/02 01:36:21;;;;;;;11.40;3.53;;;;;;;15.47;29.10;101466.38;5033242;28;20152;-71
2022/05/02 01:38:48;;;;;;;9.23;3.25;;;;;;;15.48;29.22;101464.50;5032951;28;20588;-71
2022/05/02 01:41:15;;;;;;;8.00;3.45;;;;;;;15.45;29.41;101464.84;5031644;28;20183;-70
2022/05/02 01:43:42;;;;;;;6.35;3.03;;;;;;;15.36;29.56;101468.59;5033101;28;20049;-71
2022/05/02 01:46:11;;;;;;;7.65;3.50;;;;;;;15.40;29.25;101462.69;5032838;28;20049;-71
2022/05/02 01:48:37;;;;;;;8.25;3.97;;;;;;;14.93;29.73;101458.03;5032063;28;20053;-71
2022/05/02 01:51:04;;;;;;;9.50;3.22;;;;;;;14.70;29.96;101459.72;5032483;28;20449;-71
2022/05/02 01:53:31;;;;;;;6.07;3.30;;;;;;;14.95;29.53;101460.59;5032426;28;20136;-71
2022/05/02 01:55:57;;;;;;;6.75;3.17;;;;;;;15.38;28.97;101463.84;5033708;28;20444;-71
2022/05/02 01:58:24;;;;;;;9.77;3.22;;;;;;;15.35;29.19;101453.38;5035897;28;20544;-71
2022/05/02 02:00:50;;;;;;;6.93;2.80;;;;;;;15.45;29.15;101456.72;5051529;28;20470;-71
2022/05/02 02:03:17;;;;;;;5.30;2.92;;;;;;;15.53;29.41;101454.00;5051486;28;20393;-71
2022/05/02 02:05:50;;;;;;;6.55;3.88;;;;;;;15.22;29.95;101459.31;5052904;28;20118;-71
2022/05/02 02:08:23;;;;;;;8.93;3.28;;;;;;;15.19;30.31;101457.84;5052466;28;20056;-71
2022/05/02 02:10:51;;;;;;;8.48;3.90;;;;;;;15.24;30.45;101454.59;5052250;28;20045;-71
2022/05/02 02:13:18;;;;;;;9.27;3.90;;;;;;;15.09;30.83;101443.66;5052068;28;20462;-71
2022/05/02 02:15:45;;;;;;;10.18;3.90;;;;;;;15.26;30.64;101449.88;5051811;28;20128;-71
2022/05/02 02:18:12;;;;;;;6.10;3.78;;;;;;;15.21;30.89;101444.97;5051697;28;20131;-71
2022/05/02 02:20:43;;;;;;;7.40;4.07;;;;;;;15.19;31.14;101447.03;5052312;28;20485;-71
2022/05/02 02:23:10;;;;;;;9.10;4.70;;;;;;;15.09;31.34;101438.25;5050947;28;20464;-71
2022/05/02 02:25:37;;;;;;;8.20;3.70;;;;;;;14.90;31.93;101450.28;5051466;28;20386;-71
2022/05/02 02:28:04;;;;;;;7.00;3.70;;;;;;;14.91;31.95;101451.13;5050706;28;20049;-71
2022/05/02 02:30:31;;;;;;;10.30;4.43;;;;;;;14.98;32.04;101446.72;5052117;28;20083;-70
2022/05/02 02:32:59;;;;;;;10.50;4.28;;;;;;;14.62;32.70;101446.22;5051429;28;20068;-71
2022/05/02 02:35:27;;;;;;;8.93;3.95;;;;;;;14.61;32.77;101434.56;5051666;28;20132;-71
2022/05/02 02:37:53;;;;;;;11.05;4.70;;;;;;;14.43;33.16;101437.44;5046772;28;20051;-71
2022/05/02 02:40:20;;;;;;;9.32;3.55;;;;;;;14.56;33.02;101442.31;5051236;28;20466;-71
2022/05/02 02:42:46;;;;;;;11.75;4.32;;;;;;;14.71;32.75;101446.09;5051308;28;20048;-71
2022/05/02 02:45:13;;;;;;;9.98;4.10;;;;;;;14.81;32.61;101440.50;5052066;28;20549;-71
2022/05/02 02:47:40;;;;;;;8.80;3.85;;;;;;;14.68;33.08;101441.00;5050357;28;20120;-71
2022/05/02 02:50:07;;;;;;;11.63;4.40;;;;;;;14.85;32.56;101443.72;5050429;28;20037;-71
2022/05/02 02:52:33;;;;;;;7.72;3.72;;;;;;;14.74;32.75;101439.50;5051905;28;20107;-71
2022/05/02 02:55:00;;;;;;;9.07;4.20;;;;;;;14.77;32.35;101440.00;5051888;28;20049;-71
2022/05/02 02:57:26;;;;;;;10.55;4.45;;;;;;;14.50;33.09;101432.22;5052182;28;20440;-71
2022/05/02 02:59:53;;;;;;;10.85;4.47;;;;;;;14.60;32.92;101437.44;5050580;28;20132;-71
2022/05/02 03:02:19;;;;;;;11.93;3.88;;;;;;;14.60;32.96;101435.59;5051361;28;20141;-71
2022/05/02 03:07:31;;;;;;;12.18;4.47;;;;;;;14.81;32.78;101434.25;5051143;28;20128;-71
2022/05/02 03:09:58;;;;;;;10.38;4.50;;;;;;;14.77;33.00;101434.59;5050425;28;20465;-71
2022/05/02 03:12:25;;;;;;;11.88;4.28;;;;;;;14.81;32.72;101432.41;5032052;28;20083;-71
2022/05/02 03:14:51;;;;;;;11.00;4.82;;;;;;;14.81;32.80;101434.25;5030961;28;20099;-71
2022/05/02 03:17:18;;;;;;;10.85;4.65;;;;;;;14.87;32.77;101433.56;5041193;28;20056;-71
2022/05/02 03:19:44;;;;;;;14.05;4.43;;;;;;;14.90;32.76;101423.25;5049168;28;20128;-71
2022/05/02 03:22:11;;;;;;;9.65;4.30;;;;;;;14.77;32.92;101429.22;5050581;28;20127;-71
2022/05/02 03:24:38;;;;;;;12.45;4.13;;;;;;;14.76;33.04;101427.50;5050899;28;20103;-71
2022/05/02 03:27:05;;;;;;;11.88;4.30;;;;;;;14.61;33.40;101428.34;5051358;28;20408;-71
2022/05/02 03:29:31;;;;;;;10.23;4.30;;;;;;;14.56;33.42;101423.44;5050487;28;20128;-71
2022/05/02 03:31:58;;;;;;;10.55;4.57;;;;;;;14.54;33.44;101422.78;5050951;28;20048;-71
2022/05/02 03:34:24;;;;;;;9.75;5.10;;;;;;;14.59;33.32;101430.34;5050620;28;20052;-71
2022/05/02 03:36:51;;;;;;;9.75;4.35;;;;;;;14.67;33.16;101438.44;5050234;28;20128;-71
2022/05/02 03:39:17;;;;;;;7.50;3.85;;;;;;;14.79;33.13;101425.47;5042998;28;20128;-71
2022/05/02 03:41:44;;;;;;;9.73;4.35;;;;;;;14.86;33.13;101426.47;5051237;28;20114;-71
2022/05/02 03:44:10;;;;;;;8.88;4.28;;;;;;;14.79;33.40;101426.31;5055990;28;20128;-71
2022/05/02 03:46:36;;;;;;;9.27;4.43;;;;;;;14.58;33.72;101428.69;5050385;28;20052;-71
2022/05/02 03:49:03;;;;;;;9.20;4.60;;;;;;;14.54;33.71;101417.38;5050397;28;20041;-71
2022/05/02 03:51:29;;;;;;;10.65;4.60;;;;;;;14.60;33.73;101422.09;5048274;28;20131;-69
2022/05/02 03:53:56;;;;;;;11.93;4.45;;;;;;;14.74;33.63;101413.34;5051494;28;20046;-69
2022/05/02 03:56:22;;;;;;;11.85;4.40;;;;;;;14.85;33.21;101414.00;5050696;28;20484;-69
2022/05/02 03:58:49;;;;;;;11.18;4.40;;;;;;;14.63;33.50;101410.09;5049194;28;20068;-69
2022/05/02 04:01:16;;;;;;;9.05;4.13;;;;;;;14.70;33.40;101416.50;5049577;28;20553;-69
2022/05/02 04:03:42;;;;;;;10.77;3.97;;;;;;;14.67;33.41;101409.59;5050219;28;20077;-69
2022/05/02 04:06:09;;;;;;;10.68;4.20;;;;;;;14.42;33.74;101403.34;5049803;28;20086;-69
2022/05/02 04:08:35;;;;;;;11.50;4.22;;;;;;;14.52;33.71;101408.59;5034485;28;20075;-69
2022/05/02 04:11:02;;;;;;;15.45;4.88;;;;;;;14.44;33.71;101411.28;5030170;28;20133;-69
2022/05/02 04:13:29;;;;;;;15.50;4.88;;;;;;;14.69;33.22;101417.53;5029440;28;20042;-69
2022/05/02 04:15:55;;;;;;;8.25;4.57;;;;;;;14.71;33.32;101418.22;5031471;28;20138;-69
2022/05/02 04:18:22;;;;;;;11.65;4.55;;;;;;;14.67;33.33;101420.41;5030017;28;20053;-68
2022/05/02 04:20:48;;;;;;;14.00;4.28;;;;;;;14.76;33.40;101416.69;5031184;28;20136;-68
2022/05/02 04:23:15;;;;;;;13.90;4.63;;;;;;;14.88;33.13;101424.47;5029861;28;20088;-68
2022/05/02 04:25:41;;;;;;;16.02;4.45;;;;;;;14.85;32.96;101428.34;5029446;28;20405;-69
2022/05/02 04:28:08;;;;;;;13.88;4.28;;;;;;;14.71;33.17;101434.41;5031575;28;20065;-69
2022/05/02 04:30:35;;;;;;;16.08;4.50;;;;;;;14.67;33.01;101431.22;5041543;28;20045;-69
2022/05/02 04:33:01;;;;;;;10.65;3.85;;;;;;;14.71;33.18;101432.59;5044962;28;20068;-68
2022/05/02 04:35:28;;;;;;;9.73;4.00;;;;;;;14.56;33.10;101428.00;5050951;28;20076;-69
2022/05/02 04:37:54;;;;;;;13.07;5.30;;;;;;;14.63;33.15;101434.41;5043613;28;20072;-69
2022/05/02 04:40:20;;;;;;;10.63;4.70;;;;;;;14.60;33.27;101438.31;5050776;28;20153;-70
2022/05/02 04:42:47;;;;;;;7.07;4.32;;;;;;;14.80;33.11;101440.66;5049970;28;20132;-70
2022/05/02 04:45:13;;;;;;;14.50;5.43;;;;;;;14.89;33.06;101442.34;5049946;28;20055;-70
2022/05/02 04:47:40;;;;;;;14.73;6.95;;;;;;;15.06;32.62;101445.88;5045994;28;20099;-70
2022/05/02 04:50:07;;;;;;;13.27;5.10;;;;;;;14.84;33.20;101444.72;5050357;28;20474;-69
2022/05/02 04:52:33;;;;;;;11.55;5.38;;;;;;;14.98;32.72;101452.13;5049135;28;20045;-69
2022/05/02 04:54:59;;;;;;;14.82;5.18;;;;;;;14.84;32.60;101447.41;5049590;28;20427;-70
2022/05/02 04:57:26;;;;;;;13.43;5.57;;;;;;;14.99;32.69;101451.13;5050217;28;20064;-69
2022/05/02 04:59:52;;;;;;;15.15;5.30;;;;;;;15.17;32.31;101448.22;5049867;28;20095;-69
2022/05/02 05:02:19;;;;;;;11.68;5.38;;;;;;;15.11;32.34;101446.19;5050841;28;20079;-69
2022/05/02 05:04:45;;;;;;;13.05;5.05;;;;;;;15.10;32.19;101452.63;5050265;28;20119;-69
2022/05/02 05:07:13;;;;;;;12.38;5.43;;;;;;;15.02;32.34;101456.19;5049846;28;20084;-70
2022/05/02 05:09:39;;;;;;;15.07;5.22;;;;;;;15.31;31.68;101446.66;5049522;28;20136;-69
2022/05/02 05:12:36;;;;;;;12.05;4.63;;;;;;;15.37;31.78;101448.66;5049202;28;20464;-68
2022/05/02 05:18:27;;;;;;;13.45;5.90;;;;;;;15.13;31.97;101445.00;5047302;28;20041;-68
2022/05/02 05:21:01;;;;;;;14.40;5.45;;;;;;;15.12;31.78;101450.56;5049078;28;20187;-68
2022/05/02 05:23:57;;;;;;;8.55;4.70;;;;;;;15.13;31.61;101445.00;5050903;28;20405;-68
2022/05/02 05:26:42;;;;;;;11.30;4.53;;;;;;;14.88;31.71;101448.78;5053528;28;20135;-68
2022/05/02 05:29:20;;;;;;;13.63;5.30;;;;;;;14.72;32.04;101447.75;5052245;28;20049;-69
2022/05/02 05:32:16;;;;;;;13.20;4.93;;;;;;;14.81;31.78;101448.63;5052178;28;20127;-70
2022/05/02 05:34:56;;;;;;;7.13;4.45;;;;;;;15.07;31.38;101440.28;5048028;28;20133;-68
2022/05/02 05:37:50;;;;;;;10.57;4.88;;;;;;;15.47;30.96;101446.59;5053124;28;20477;-68
2022/05/02 05:40:40;;;;;;;15.70;4.90;;;;;;;15.49;31.04;101445.38;5052991;28;20072;-69
2022/05/02 05:43:24;;;;;;;13.55;5.22;;;;;;;15.70;30.60;101442.09;5058335;28;20076;-71
2022/05/02 05:46:07;;;;;;;13.75;5.75;;;;;;;15.53;30.89;101440.47;5053552;28;20460;-71
2022/05/02 05:48:53;;;;;;;12.48;5.10;;;;;;;15.28;30.52;101436.19;5052399;28;20048;-71
2022/05/02 05:51:28;;;;;;;14.82;5.00;;;;;;;14.71;31.11;101437.13;5053327;28;20053;-70
2022/05/02 05:54:10;;;;;;;13.02;4.90;;;;;;;15.30;30.18;101435.00;5053133;28;20056;-71
2022/05/02 05:57:03;;;;;;;13.15;5.07;;;;;;;15.44;30.29;101431.56;5050222;28;20071;-71
2022/05/02 05:59:41;;;;;;;17.95;6.15;;;;;;;15.66;30.10;101424.56;5052588;28;20079;-70
2022/05/02 06:02:17;;;;;;;19.38;5.78;;;;;;;15.82;29.97;101414.69;5052676;28;20128;-71
2022/05/02 06:04:47;;;;;;;15.48;5.82;;;;;;;15.88;29.96;101422.06;5053357;28;20505;-71
2022/05/02 06:07:17;;;;;;;13.85;4.72;;;;;;;15.71;29.89;101419.47;5048163;28;20099;-71
2022/05/02 06:09:44;;;;;;;16.98;5.22;;;;;;;15.27;29.72;101419.13;5052035;28;20140;-71
2022/05/02 06:12:12;;;;;;;13.05;4.72;;;;;;;15.44;29.01;101417.19;5051667;28;20525;-71
2022/05/02 06:20:18;;;;;;;13.95;5.18;;;;;;;15.34;29.37;101428.22;5054541;28;20049;-71
2022/05/02 06:22:46;;;;;;;14.73;4.68;;;;;;;16.01;28.27;101427.75;5054068;28;20443;-71
2022/05/02 06:25:14;;;;;;;15.50;5.50;;;;;;;16.28;28.29;101431.78;5054347;28;20124;-71
2022/05/02 06:27:43;;;;;;;15.52;5.13;;;;;;;16.63;27.98;101433.06;5053361;28;20162;-72
2022/05/02 06:30:11;;;;;;;14.32;5.20;;;;;;;16.95;27.14;101444.59;5053664;28;20071;-71
2022/05/02 06:32:39;;;;;;;14.45;5.00;;;;;;;17.04;26.70;101439.94;5053662;28;20049;-72
2022/05/02 06:35:06;;;;;;;17.25;4.85;;;;;;;16.90;27.06;101447.03;5056089;28;20067;-72
2022/05/02 06:37:48;;;;;;;12.25;4.63;;;;;;;17.28;26.37;101439.69;5054394;28;20093;-72
2022/05/02 06:40:36;;;;;;;14.23;4.50;;;;;;;17.63;25.74;101439.13;5054560;28;20128;-73
2022/05/02 06:43:11;;;;;;;14.38;4.80;;;;;;;17.75;25.39;101443.88;5051622;28;20131;-72
2022/05/02 06:46:03;;;;;;;6.97;4.40;;;;;;;18.03;24.59;101435.00;5053772;28;20105;-72
2022/05/02 06:48:36;;;;;;;16.95;4.70;;;;;;;18.22;24.35;101436.28;5051781;28;20063;-72
2022/05/02 06:51:14;;;;;;;13.25;4.85;;;;;;;18.18;24.09;101433.13;5047931;28;20067;-72
2022/05/02 06:54:05;;;;;;;16.05;4.50;;;;;;;18.36;24.18;101434.53;5052098;28;20049;-72
2022/05/02 06:56:45;;;;;;;14.30;4.43;;;;;;;18.15;24.39;101438.09;5051647;28;20114;-72
2022/05/02 06:59:39;;;;;;;19.95;4.93;;;;;;;18.68;23.78;101431.25;5051629;28;20056;-72
2022/05/02 07:02:11;;;;;;;16.90;4.63;;;;;;;19.12;23.24;101429.31;5049942;28;20103;-71
2022/05/02 07:04:50;;;;;;;13.15;3.80;;;;;;;19.64;22.96;101433.34;5051170;28;20222;-71
2022/05/02 07:07:38;;;;;;;18.48;4.50;;;;;;;19.25;23.17;101434.84;5051686;28;20446;-72
2022/05/02 07:10:21;;;;;;;22.27;4.60;;;;;;;19.25;23.62;101437.56;5050587;28;20513;-71
2022/05/02 07:13:00;;;;;;;12.57;4.40;;;;;;;20.01;22.90;101440.22;5051488;28;20065;-71
2022/05/02 07:15:40;;;;;;;15.95;4.95;;;;;;;20.43;22.64;101436.34;5051146;28;20430;-71
2022/05/02 07:18:13;;;;;;;10.80;4.80;;;;;;;20.55;22.03;101435.69;5050830;28;20072;-72
2022/05/02 07:21:34;;;;;;;9.52;4.35;;;;;;;20.07;22.84;101433.91;5049709;28;20045;-71
2022/05/02 07:25:00;;;;;;;9.65;4.40;;;;;;;20.74;22.25;101431.31;5049880;28;20114;-71
2022/05/02 07:28:11;;;;;;;15.88;4.70;;;;;;;21.53;21.57;101422.97;5029266;28;20053;-71
2022/05/02 07:30:38;;;;;;;13.25;5.28;;;;;;;21.31;21.81;101425.13;5029072;28;20107;-71
2022/05/02 07:33:07;;;;;;;11.05;5.53;;;;;;;21.95;21.17;101422.59;5029340;28;20411;-70
2022/05/02 07:35:35;;;;;;;18.58;4.97;;;;;;;22.62;20.76;101421.09;5024171;28;20037;-70
2022/05/02 07:38:02;;;;;;;9.95;5.05;;;;;;;22.17;20.71;101421.19;5028400;28;20128;-70
2022/05/02 07:40:30;;;;;;;13.93;5.22;;;;;;;22.35;20.14;101425.06;5011902;28;20445;-71
2022/05/02 07:42:59;;;;;;;15.82;5.07;;;;;;;22.50;20.73;101422.88;5028684;28;20064;-70
2022/05/02 07:45:30;;;;;;;7.28;3.80;;;;;;;22.78;20.59;101419.69;5028411;28;20484;-70
2022/05/02 07:48:00;;;;;;;15.23;4.32;;;;;;;23.00;20.52;101425.56;5027277;28;20046;-71
2022/05/02 07:50:27;;;;;;;11.65;4.20;;;;;;;23.02;20.22;101420.72;5027587;28;20132;-70
2022/05/02 07:52:56;;;;;;;12.85;4.32;;;;;;;22.83;20.50;101417.09;5025227;28;20136;-70
2022/05/02 07:55:23;;;;;;;14.35;4.22;;;;;;;23.12;19.67;101418.34;5028857;28;20055;-70
2022/05/02 07:57:54;;;;;;;13.30;3.97;;;;;;;23.36;19.60;101423.94;5029337;28;20159;-70
2022/05/02 08:00:20;;;;;;;19.55;4.70;;;;;;;23.85;19.39;101420.19;5031911;28;20139;-70
2022/05/02 08:02:47;;;;;;;13.60;4.22;;;;;;;22.45;21.14;101423.50;5051359;28;20398;-70
2022/05/02 08:05:19;;;;;;;7.90;3.63;;;;;;;23.61;19.96;101413.75;5051163;28;20075;-72
2022/05/02 08:07:46;;;;;;;14.35;4.47;;;;;;;22.22;20.67;101420.50;5050279;28;20056;-71
2022/05/02 08:10:15;;;;;;;13.57;4.53;;;;;;;21.43;21.66;101419.03;5049858;28;20075;-70
2022/05/02 08:12:50;;;;;;;15.88;4.10;;;;;;;20.85;22.76;101422.47;5050217;28;20079;-71
2022/05/02 08:15:49;;;;;;;12.40;5.20;;;;;;;21.27;22.15;101418.44;5050788;28;20055;-70
2022/05/02 08:18:40;;;;;;;14.18;4.60;;;;;;;21.44;22.29;101417.97;5050700;28;20453;-71
2022/05/02 08:21:20;;;;;;;14.63;4.57;;;;;;;22.77;20.97;101407.06;5051506;28;20045;-71
2022/05/02 08:27:35;;;;;;;12.35;4.10;;;;;;;23.99;19.98;101409.88;5050736;28;20071;-71
2022/05/02 08:30:04;;;;;;;13.55;4.30;;;;;;;24.43;19.32;101407.75;5030595;28;20065;-70
2022/05/02 08:32:42;;;;;;;18.77;4.45;;;;;;;25.10;18.39;101405.53;5031931;28;20073;-70
2022/05/02 08:35:12;;;;;;;14.25;3.72;;;;;;;25.63;18.17;101416.53;5032361;28;20486;-70
2022/05/02 08:37:41;;;;;;;8.70;4.35;;;;;;;25.37;17.83;101410.47;5030674;28;20464;-71
2022/05/02 08:40:19;;;;;;;11.35;4.00;;;;;;;25.76;17.82;101414.31;5037235;28;20064;-70
2022/05/02 08:43:07;;;;;;;11.65;4.60;;;;;;;24.81;18.15;101412.78;5030339;28;20049;-70
2022/05/02 08:46:28;;;;;;;6.68;3.70;;;;;;;25.37;17.75;101410.47;5030773;28;20087;-70
2022/05/02 08:49:38;;;;;;;8.32;3.58;;;;;;;26.17;17.27;101401.34;5036914;28;20045;-70
2022/05/02 08:52:39;;;;;;;13.88;3.80;;;;;;;26.04;17.53;101398.91;5030506;28;20128;-71
2022/05/02 08:55:26;;;;;;;6.82;3.60;;;;;;;27.06;16.64;101391.47;5030517;28;20065;-70
2022/05/02 08:58:08;;;;;;;7.20;3.70;;;;;;;27.13;16.36;101386.59;5034147;28;20129;-69
2022/05/02 09:00:37;;;;;;;12.15;3.10;;;;;;;26.93;16.63;101385.25;5054287;28;20041;-70
2022/05/02 09:03:50;;;;;;;13.98;3.83;;;;;;;26.32;16.94;101390.63;5053542;28;20497;-70
2022/05/02 09:06:47;;;;;;;8.65;3.72;;;;;;;25.30;17.69;101385.03;5052701;28;20049;-70
2022/05/02 09:09:51;;;;;;;13.73;3.90;;;;;;;25.06;17.96;101387.88;5053378;28;20075;-70
2022/05/02 09:12:47;;;;;;;8.80;3.65;;;;;;;23.84;19.18;101382.06;5053525;28;20123;-70
2022/05/02 09:15:47;;;;;;;10.18;3.83;;;;;;;23.48;19.27;101375.56;5053485;28;20061;-71
2022/05/02 09:18:39;;;;;;;12.48;4.18;;;;;;;24.03;19.26;101378.19;5045994;28;20045;-70
2022/05/02 09:21:08;;;;;;;11.25;4.40;;;;;;;24.38;18.61;101380.16;5063102;28;20546;-70
2022/05/02 09:24:17;;;;;;;10.95;3.83;;;;;;;25.48;18.00;101379.41;5053755;28;20128;-71
2022/05/02 09:26:57;;;;;;;6.82;3.15;;;;;;;25.77;17.89;101372.00;5053641;28;20132;-70
2022/05/02 09:29:56;;;;;;;11.73;3.78;;;;;;;25.84;17.77;101371.88;5053585;28;20485;-72
2022/05/02 09:32:38;;;;;;;9.38;3.80;;;;;;;26.64;16.66;101370.75;5054002;28;20044;-71
2022/05/02 09:35:06;;;;;;;8.43;3.78;;;;;;;27.23;16.33;101367.44;5054239;28;20120;-70
2022/05/02 09:37:55;;;;;;;8.20;3.58;;;;;;;26.83;16.73;101360.34;5054611;28;20072;-71
2022/05/02 09:40:41;;;;;;;11.38;4.03;;;;;;;26.58;16.82;101359.91;5054492;28;20433;-72
2022/05/02 09:43:24;;;;;;;9.32;4.05;;;;;;;26.54;17.09;101360.41;5054300;28;20102;-72
2022/05/02 09:49:40;;;;;;;10.95;4.13;;;;;;;26.00;16.94;101351.00;5052490;28;20076;-70
2022/05/02 09:52:25;;;;;;;8.57;4.32;;;;;;;26.88;16.37;101351.31;5054027;28;20045;-70
2022/05/02 09:58:35;;;;;;;20.42;4.50;;;;;;;29.02;14.30;101336.00;5031889;28;20080;-72
2022/05/02 10:01:21;;;;;;;9.52;4.45;;;;;;;27.60;15.74;101339.25;5033782;28;20466;-71
2022/05/02 10:04:12;;;;;;;9.82;3.50;;;;;;;27.98;15.59;101341.03;5032874;28;21621;-71
2022/05/02 10:06:46;;;;;;;9.10;3.35;;;;;;;27.93;15.73;101340.97;5033236;28;20046;-70
2022/05/02 10:10:10;;;;;;;11.88;3.83;;;;;;;27.41;16.12;101330.50;5054389;28;20087;-70
2022/05/02 10:13:05;;;;;;;8.45;4.30;;;;;;;29.74;14.24;101329.59;5049592;28;20049;-71
2022/05/02 10:15:53;;;;;;;10.30;3.42;;;;;;;29.83;14.05;101336.22;5049858;28;20537;-70
2022/05/02 10:18:43;;;;;;;12.70;4.00;;;;;;;28.75;14.57;101328.63;5048931;28;20051;-72
2022/05/02 10:21:47;;;;;;;11.80;3.72;;;;;;;28.50;14.89;101325.75;5050135;28;20069;-71
2022/05/02 10:24:32;;;;;;;11.98;4.20;;;;;;;27.85;15.23;101319.38;5033152;28;20454;-72
2022/05/02 10:27:32;;;;;;;8.68;3.75;;;;;;;27.68;15.40;101312.03;5051465;28;20184;-70
2022/05/02 10:30:13;;;;;;;8.05;4.43;;;;;;;25.58;17.08;101308.16;5041415;28;20491;-70
2022/05/02 10:32:44;;;;;;;;;;;;;;;25.83;17.25;101305.06;5049726;28;20045;-70
2022/05/02 10:35:14;;;;;;;13.02;3.80;;;;;;;26.61;16.33;101301.63;5049396;28;20003;-70
2022/05/02 10:37:46;;;;;;;7.30;4.47;;;;;;;26.75;16.35;101303.78;5048271;28;20063;-70
2022/05/02 10:40:13;;;;;;;10.40;4.47;;;;;;;25.25;17.43;101297.91;5033818;28;20072;-70
2022/05/02 10:42:51;;;;;;;7.97;4.60;;;;;;;25.54;17.46;101293.22;5051391;28;20485;-70
2022/05/02 10:45:17;;;;;;;9.27;4.10;;;;;;;25.84;17.33;101281.16;5053133;28;20076;-71
2022/05/02 10:47:50;;;;;;;7.00;3.95;;;;;;;26.48;16.73;101289.06;5051609;28;20549;-72
2022/05/02 10:50:31;;;;;;;13.15;4.68;;;;;;;25.25;18.00;101281.44;5053437;28;20454;-72
2022/05/02 10:53:10;;;;;;;12.15;4.53;;;;;;;24.95;18.18;101289.84;5053029;28;20044;-71
2022/05/02 10:56:05;;;;;;;9.07;4.95;;;;;;;25.76;17.46;101284.31;5052708;28;20052;-71
2022/05/02 10:58:34;;;;;;;7.50;4.80;;;;;;;25.27;17.82;101278.44;5033081;28;20068;-70
2022/05/02 11:01:30;;;;;;;8.05;3.83;;;;;;;26.29;16.77;101270.09;5047655;28;20098;-71
2022/05/02 11:04:14;;;;;;;8.32;3.90;;;;;;;26.73;16.81;101269.31;5048944;28;20091;-71
2022/05/02 11:06:52;;;;;;;19.77;4.60;;;;;;;26.63;16.63;101263.69;5051990;28;20456;-70
2022/05/02 11:09:32;;;;;;;11.20;4.93;;;;;;;26.14;17.34;101264.34;5046401;28;20071;-71
2022/05/02 11:12:03;;;;;;;9.10;4.07;;;;;;;27.17;16.38;101258.31;5032623;28;20541;-71
2022/05/02 11:14:47;;;;;;;13.50;4.83;;;;;;;25.75;18.03;101257.91;5029722;28;20059;-71
2022/05/02 11:17:39;;;;;;;5.70;4.03;;;;;;;25.81;17.78;101251.41;5046798;28;20405;-71
2022/05/02 11:20:43;;;;;;;8.50;4.80;;;;;;;25.78;17.67;101254.66;5044737;28;20120;-71
2022/05/02 11:23:31;;;;;;;7.25;4.18;;;;;;;26.66;16.72;101242.00;5031208;28;20175;-70
2022/05/02 11:26:32;;;;;;;8.45;4.03;;;;;;;26.33;17.12;101240.97;5044011;28;20133;-71
2022/05/02 11:29:55;;;;;;;10.77;4.60;;;;;;;27.76;15.44;101239.06;5051706;28;20140;-73
2022/05/02 11:32:33;;;;;;;9.90;4.10;;;;;;;28.42;15.33;101239.59;5050136;28;20191;-71
2022/05/02 11:35:12;;;;;;;8.57;4.30;;;;;;;28.78;15.03;101239.75;5051672;28;20053;-70
2022/05/02 11:38:05;;;;;;;11.68;3.97;;;;;;;28.18;15.03;101233.63;5051025;28;20053;-73
2022/05/02 11:40:34;;;;;;;31.15;4.45;;;;;;;27.92;15.56;101232.59;5051870;28;20127;-71
2022/05/02 11:43:03;;;;;;;10.07;4.18;;;;;;;27.61;15.79;101225.16;5050488;28;20151;-71
2022/05/02 11:45:42;;;;;;;9.43;4.03;;;;;;;29.21;14.66;101223.88;5051537;28;20540;-71
2022/05/02 11:48:31;;;;;;;9.85;3.72;;;;;;;28.19;15.43;101215.97;5051734;28;20109;-71
2022/05/02 11:51:02;;;;;;;12.95;4.47;;;;;;;27.21;16.41;101215.38;5052698;28;20064;-70
2022/05/02 11:53:33;;;;;;;8.73;4.80;;;;;;;25.75;17.76;101216.69;5052147;28;20119;-71
2022/05/02 11:56:03;;;;;;;;;;;;;;;25.25;17.70;101209.22;5052369;28;20075;-70
2022/05/02 11:58:42;;;;;;;7.65;4.18;;;;;;;24.30;19.33;101208.63;5051054;28;19936;-71
2022/05/02 12:01:10;;;;;;;10.40;4.15;;;;;;;25.40;18.31;101201.22;5052266;28;20065;-72
2022/05/02 12:03:43;;;;;;;14.98;4.15;;;;;;;25.84;17.67;101202.28;5054406;28;20049;-73
2022/05/02 12:06:15;;;;;;;12.20;4.10;;;;;;;25.93;17.68;101193.59;5053514;28;20103;-73
2022/05/02 12:08:46;;;;;;;9.98;4.85;;;;;;;25.38;18.10;101192.44;5053600;28;20569;-72
2022/05/02 12:11:14;;;;;;;6.80;3.95;;;;;;;24.30;19.29;101191.31;5051920;28;20097;-73
2022/05/02 12:13:44;;;;;;;14.63;5.10;;;;;;;24.41;19.27;101196.00;5052582;28;20132;-73
2022/05/02 12:16:18;;;;;;;10.38;4.30;;;;;;;22.34;21.29;101189.13;5052539;28;20052;-72
2022/05/02 12:18:47;;;;;;;10.40;4.20;;;;;;;22.46;21.50;101198.25;5053249;28;20041;-71
2022/05/02 12:21:32;;;;;;;9.25;3.78;;;;;;;23.88;19.93;101194.19;5052010;28;20099;-73
2022/05/02 12:24:00;;;;;;;7.03;3.80;;;;;;;24.02;19.68;101189.31;5053672;28;20045;-72